createdAt,value
2023-02-13T00:00:52.623Z,24.80
2023-02-13T00:06:00.079Z,29.10
2023-02-13T00:11:07.241Z,29.73
2023-02-13T00:16:13.160Z,29.58
2023-02-13T00:21:19.394Z,30.45
2023-02-13T00:31:30.655Z,35.35
2023-02-13T00:36:38.167Z,32.97
2023-02-13T00:41:44.938Z,34.70
2023-02-13T00:46:51.201Z,35.65
2023-02-13T01:06:28.788Z,34.10
2023-02-13T01:11:35.190Z,38.20
2023-02-13T01:17:13.400Z,39.50
2023-02-13T01:22:38.386Z,44.15
2023-02-13T01:27:44.741Z,46.22
2023-02-13T01:32:51.074Z,45.15
2023-02-13T01:38:00.409Z,47.78
2023-02-13T01:43:06.380Z,44.30
2023-02-13T01:48:30.339Z,40.15
2023-02-13T01:58:49.232Z,45.30
2023-02-13T02:04:12.758Z,44.28
2023-02-13T02:09:25.216Z,42.75
2023-02-13T02:14:31.655Z,49.33
2023-02-13T02:20:14.969Z,42.67
2023-02-13T02:25:57.367Z,51.95
2023-02-13T02:31:21.534Z,49.90
2023-02-13T02:37:25.557Z,48.08
2023-02-13T02:49:36.760Z,36.35
2023-02-13T02:55:12.603Z,42.95
2023-02-13T03:01:09.367Z,46.20
2023-02-13T03:06:27.215Z,46.63
2023-02-13T03:11:51.446Z,51.90
2023-02-13T03:17:21.325Z,42.72
2023-02-13T03:24:01.589Z,38.40
2023-02-13T03:29:43.107Z,51.53
2023-02-13T03:35:19.821Z,49.25
2023-02-13T03:41:22.285Z,48.80
2023-02-13T03:46:32.683Z,56.47
2023-02-13T03:51:50.995Z,40.53
2023-02-13T03:57:17.523Z,49.63
2023-02-13T04:02:27.945Z,50.35
2023-02-13T04:07:34.664Z,51.88
2023-02-13T04:12:53.440Z,47.97
2023-02-13T04:18:20.856Z,50.45
2023-02-13T04:35:12.911Z,46.58
2023-02-13T04:40:22.581Z,41.58
2023-02-13T04:45:55.519Z,53.00
2023-02-13T04:56:47.210Z,50.90
2023-02-13T05:01:53.158Z,51.60
2023-02-13T05:06:58.725Z,53.60
2023-02-13T05:12:04.322Z,52.35
2023-02-13T05:17:10.676Z,51.25
2023-02-13T05:22:34.251Z,52.47
2023-02-13T05:27:40.004Z,53.72
2023-02-13T05:32:45.762Z,54.20
2023-02-13T05:37:51.250Z,46.08
2023-02-13T05:43:16.703Z,47.55
2023-02-13T05:48:43.514Z,53.83
2023-02-13T05:53:49.032Z,52.53
2023-02-13T05:58:58.342Z,44.42
2023-02-13T06:04:04.154Z,49.97
2023-02-13T06:14:16.131Z,51.92
2023-02-13T06:19:21.794Z,57.10
2023-02-13T06:24:28.389Z,58.78
2023-02-13T06:29:34.568Z,55.05
2023-02-13T06:34:39.834Z,57.85
2023-02-13T06:39:45.472Z,53.60
2023-02-13T06:44:51.490Z,51.17
2023-02-13T06:49:56.965Z,46.58
2023-02-13T06:55:02.805Z,47.60
2023-02-13T07:00:13.039Z,56.45
2023-02-13T07:05:18.744Z,57.50
2023-02-13T07:10:25.188Z,55.13
2023-02-13T07:15:30.802Z,57.03
2023-02-13T07:20:40.397Z,56.10
2023-02-13T07:30:50.776Z,48.85
2023-02-13T07:41:05.758Z,49.63
2023-02-13T07:46:15.146Z,49.85
2023-02-13T07:51:20.758Z,50.05
2023-02-13T07:56:26.376Z,46.42
2023-02-13T08:06:37.131Z,47.40
2023-02-13T08:17:03.720Z,50.22
2023-02-13T08:22:38.883Z,47.17
2023-02-13T08:27:44.466Z,49.50
2023-02-13T08:38:04.177Z,45.95
2023-02-13T08:43:10.148Z,45.40
2023-02-13T08:54:32.967Z,47.53
2023-02-13T08:59:38.473Z,54.72
2023-02-13T09:04:52.940Z,45.75
2023-02-13T09:09:58.311Z,46.22
2023-02-13T09:15:03.995Z,47.55
2023-02-13T09:25:33.376Z,38.87
2023-02-13T09:31:43.022Z,47.78
2023-02-13T09:36:53.024Z,43.88
2023-02-13T09:41:59.978Z,38.78
2023-02-13T09:47:08.474Z,54.38
2023-02-13T09:52:14.378Z,46.65
2023-02-13T09:57:30.922Z,41.58
2023-02-13T10:03:00.787Z,48.22
2023-02-13T10:21:59.408Z,53.23
2023-02-13T10:27:35.589Z,50.00
2023-02-13T10:33:25.565Z,49.50
2023-02-13T10:38:34.597Z,50.85
2023-02-13T10:44:05.265Z,44.75
2023-02-13T10:49:22.504Z,50.33
2023-02-13T10:54:51.659Z,40.75
2023-02-13T11:00:26.799Z,48.85
2023-02-13T11:05:43.723Z,44.13
2023-02-13T11:10:49.782Z,46.25
2023-02-13T11:16:12.039Z,47.25
2023-02-13T11:21:36.642Z,34.38
2023-02-13T11:26:43.061Z,41.55
2023-02-13T11:31:49.120Z,38.08
2023-02-13T11:36:56.740Z,34.45
2023-02-13T11:42:03.165Z,33.10
2023-02-13T11:47:09.014Z,39.20
2023-02-13T11:58:08.075Z,35.30
2023-02-13T12:03:32.397Z,38.55
2023-02-13T12:08:41.916Z,35.92
2023-02-13T12:13:48.771Z,36.92
2023-02-13T12:18:58.850Z,36.65
2023-02-13T12:24:26.556Z,37.55
2023-02-13T12:30:02.121Z,35.30
2023-02-13T12:35:29.267Z,31.42
2023-02-13T12:41:00.775Z,30.02
2023-02-13T12:46:39.771Z,31.98
2023-02-13T12:51:58.346Z,30.42
2023-02-13T12:57:07.401Z,27.25
2023-02-13T13:02:35.961Z,29.48
2023-02-13T13:07:59.027Z,26.95
2023-02-13T13:13:29.200Z,27.90
2023-02-13T13:18:49.778Z,19.08
2023-02-13T13:36:49.575Z,18.95
2023-02-13T13:49:52.123Z,22.08
2023-02-13T13:55:01.800Z,21.25
2023-02-13T14:00:12.704Z,20.88
2023-02-13T14:05:24.451Z,29.58
2023-02-13T14:10:33.996Z,24.80
2023-02-13T14:15:45.913Z,20.83
2023-02-13T14:20:54.290Z,27.33
2023-02-13T14:26:18.732Z,28.05
2023-02-13T14:31:46.105Z,24.35
2023-02-13T14:37:14.469Z,29.75
2023-02-13T14:42:31.733Z,25.50
2023-02-13T14:47:58.267Z,27.90
2023-02-13T14:53:11.503Z,23.77
2023-02-13T14:58:39.822Z,31.35
2023-02-13T15:04:14.337Z,27.48
2023-02-13T15:09:41.424Z,16.33
2023-02-13T15:14:47.256Z,24.23
2023-02-13T15:19:58.736Z,24.55
2023-02-13T15:25:05.118Z,28.58
2023-02-13T15:30:25.230Z,30.55
2023-02-13T15:35:39.046Z,32.70
2023-02-13T15:40:45.825Z,30.73
2023-02-13T15:45:51.653Z,29.85
2023-02-13T15:56:06.808Z,28.55
2023-02-13T16:01:42.179Z,33.70
2023-02-13T16:12:34.170Z,30.02
2023-02-13T16:17:44.708Z,27.45
2023-02-13T16:23:03.885Z,29.30
2023-02-13T16:28:24.259Z,26.88
2023-02-13T16:33:44.858Z,28.20
2023-02-13T16:38:51.703Z,30.20
2023-02-13T16:44:07.888Z,28.98
2023-02-13T16:49:13.366Z,29.52
2023-02-13T16:54:19.291Z,30.90
2023-02-13T17:06:39.392Z,32.75
2023-02-13T17:11:51.372Z,31.52
2023-02-13T17:16:57.143Z,31.33
2023-02-13T17:22:02.625Z,30.90
2023-02-13T17:27:07.848Z,33.60
2023-02-13T17:32:19.287Z,32.83
2023-02-13T17:37:31.621Z,33.13
2023-02-13T17:42:41.297Z,34.00
2023-02-13T17:47:46.707Z,32.92
2023-02-13T17:52:52.211Z,32.88
2023-02-13T17:57:59.780Z,31.23
2023-02-13T18:03:05.678Z,30.60
2023-02-13T18:08:11.312Z,31.02
2023-02-13T18:13:16.818Z,28.13
2023-02-13T18:18:21.960Z,28.10
2023-02-13T18:23:27.453Z,27.57
2023-02-13T18:28:33.705Z,26.00
2023-02-13T18:33:39.750Z,27.15
2023-02-13T18:43:50.200Z,31.90
2023-02-13T18:48:55.435Z,29.43
2023-02-13T18:54:01.368Z,31.33
2023-02-13T19:04:13.299Z,57.30
2023-02-13T19:09:18.982Z,51.33
2023-02-13T19:14:25.924Z,62.92
2023-02-13T19:19:33.130Z,43.80
2023-02-13T19:24:38.553Z,43.85
2023-02-13T19:29:43.712Z,38.23
2023-02-13T19:34:58.099Z,38.63
2023-02-13T19:40:04.037Z,36.17
2023-02-13T19:45:09.638Z,43.53
2023-02-13T19:50:14.991Z,28.30
2023-02-13T19:55:21.538Z,24.27
2023-02-13T20:00:27.550Z,32.65
2023-02-13T20:05:40.141Z,38.67
2023-02-13T20:10:48.644Z,39.58
2023-02-13T20:15:54.698Z,32.30
2023-02-13T20:20:59.998Z,28.40
2023-02-13T20:26:15.216Z,32.58
2023-02-13T20:31:23.265Z,24.95
2023-02-13T20:36:31.811Z,19.73
2023-02-13T20:41:38.512Z,25.52
2023-02-13T20:46:43.949Z,14.85
2023-02-13T20:52:10.980Z,17.77
2023-02-13T20:57:17.309Z,14.85
2023-02-13T21:02:22.352Z,18.20
2023-02-13T21:07:28.604Z,16.20
2023-02-13T21:12:35.221Z,18.40
2023-02-13T21:17:40.339Z,15.30
2023-02-13T21:22:46.160Z,17.53
2023-02-13T21:27:51.524Z,21.45
2023-02-13T21:32:56.807Z,13.47
2023-02-13T21:38:02.042Z,13.33
2023-02-13T21:43:08.188Z,15.67
2023-02-13T21:48:13.775Z,15.43
2023-02-13T21:53:19.224Z,14.30
2023-02-13T21:58:24.981Z,15.97
2023-02-13T22:03:30.545Z,13.95
2023-02-13T22:08:36.358Z,17.73
2023-02-13T22:13:41.732Z,11.65
2023-02-13T22:18:47.568Z,11.43
2023-02-13T22:29:02.276Z,13.07
2023-02-13T22:34:08.347Z,12.20
2023-02-13T22:44:20.629Z,15.35
2023-02-13T22:49:26.300Z,17.75
2023-02-13T22:54:32.096Z,14.95
2023-02-13T22:59:40.204Z,15.52
2023-02-13T23:04:45.564Z,12.77
2023-02-13T23:09:51.108Z,11.47
2023-02-13T23:14:59.159Z,11.50
2023-02-13T23:20:04.707Z,9.80
2023-02-13T23:25:10.889Z,11.90
2023-02-13T23:30:18.153Z,9.68
2023-02-13T23:35:23.772Z,10.82
2023-02-13T23:40:29.274Z,8.27
2023-02-13T23:45:34.740Z,9.47
2023-02-13T23:50:41.341Z,14.60
2023-02-13T23:55:46.488Z,12.18
